বাংলা English Search

No signal for Maritime ports of Bangladesh.

TAF

TAF VGHS 220500 2206/231222008KT 4000 HZ EW015 SCT100
BECMG 2216/2218 26006KT 3500 HZ SCT015 BKN100
BECMG 2221/2223 28005KT 3000 HZ SCT012 BKN100=

TAF VGEG 220500Z 2206/2312 25008KT 4500 HZ SCT015 BKN110
  BECMG 2216/2218 05003KT 3500 HZ SCT015 SCT100
  BECMG 2222/2224 03003KT 2500 BR SCT015 BKN100
  TEMPO 2222/2302 00000KT 0800 FG BKN007
  BECMG 2302/2304 33005KT 3500 HZ SCT016 SCT110=

TAF VGSY 220400Z 2206/2312 12005KT 4000 HZ SCT015
BECMG 2218/2220 05004KT 3000 HZ SCT015
BECMG 2223/2301 00000KT 1500 BR SCT012
BECMG 2303/2305 09005KT 3000 HZ NSC=

 

    http://live3.bmd.gov.bd/p/TAF-100/